Time;durP1;ratioP1;P1;durP2;ratioP2;P2;SDS_P1;SDS_P2;PMS_P1;PMS_P2;Temp;Humidity;BMP_temperature;BMP_pressure;BME280_temperature;BME280_humidity;BME280_pressure;Samples;Min_cycle;Max_cycle;Signal;HPM_P1;HPM_P2
2022/05/27 00:00:41;;;;;;;3.20;2.10;;;14.10;72.30;;;13.08;70.61;98414.50;5089182;28;20568;-77
2022/05/27 00:03:09;;;;;;;7.60;2.83;;;14.00;72.60;;;12.92;70.89;98400.44;5100255;28;20465;-75
2022/05/27 00:05:37;;;;;;;3.53;2.60;;;14.00;72.80;;;13.11;70.32;98414.03;5082504;28;20548;-74
2022/05/27 00:08:06;;;;;;;3.23;2.23;;;14.00;72.90;;;12.98;70.79;98407.69;5083223;28;20607;-73
2022/05/27 00:10:33;;;;;;;2.63;2.40;;;14.00;72.80;;;13.01;70.72;98404.53;5088427;28;20483;-72
2022/05/27 00:13:01;;;;;;;3.63;2.47;;;13.90;73.10;;;13.13;70.23;98410.06;5112350;28;20438;-74
2022/05/27 00:15:28;;;;;;;4.83;2.33;;;14.00;73.00;;;13.09;70.33;98402.59;5109637;28;20448;-73
2022/05/27 00:17:55;;;;;;;6.33;2.53;;;14.00;72.90;;;13.06;70.48;98405.75;5092007;28;20930;-73
2022/05/27 00:20:23;;;;;;;3.63;2.30;;;14.00;73.10;;;12.97;70.83;98403.34;5092384;28;20475;-73
2022/05/27 00:22:51;;;;;;;3.90;2.20;;;14.00;73.20;;;12.99;70.67;98401.22;5072528;28;20449;-74
2022/05/27 00:25:19;;;;;;;2.30;2.10;;;13.90;73.10;;;13.05;70.08;98396.78;5068173;28;20476;-75
2022/05/27 00:27:46;;;;;;;2.50;2.30;;;14.00;73.20;;;13.02;70.30;98392.63;5077331;28;20956;-75
2022/05/27 00:30:14;;;;;;;2.40;2.20;;;14.00;73.10;;;12.92;70.76;98388.78;5086951;28;21141;-74
2022/05/27 00:32:42;;;;;;;2.53;2.33;;;13.90;73.20;;;12.95;70.74;98393.75;5089422;28;20503;-74
2022/05/27 00:35:10;;;;;;;3.17;2.70;;;13.90;73.20;;;12.93;70.79;98391.25;5082092;28;20479;-77
2022/05/27 00:37:37;;;;;;;3.90;2.27;;;13.90;73.30;;;12.98;70.62;98394.13;5087101;28;20930;-74
2022/05/27 00:40:09;;;;;;;3.40;2.20;;;13.90;73.30;;;12.95;70.30;98389.13;5089539;28;20461;-75
2022/05/27 00:42:39;;;;;;;2.63;2.17;;;13.90;73.40;;;12.93;70.66;98388.53;5089696;28;21039;-74
2022/05/27 00:45:08;;;;;;;4.57;2.87;;;13.90;73.40;;;12.89;70.27;98384.59;5083700;28;20456;-77
2022/05/27 00:47:39;;;;;;;2.93;2.63;;;13.90;73.20;;;12.86;70.65;98385.88;5086270;28;20541;-74
2022/05/27 00:50:12;;;;;;;4.60;2.57;;;13.90;73.40;;;12.98;70.35;98388.72;5080800;28;20481;-76
2022/05/27 00:52:41;;;;;;;2.27;1.87;;;13.90;73.40;;;12.95;70.15;98391.84;5086420;28;20477;-74
2022/05/27 00:55:15;;;;;;;2.73;2.10;;;13.90;73.30;;;12.87;70.61;98389.44;5086431;28;20453;-78
2022/05/27 00:57:49;;;;;;;3.20;2.90;;;13.90;73.50;;;12.79;71.02;98385.13;5089196;28;20988;-74
2022/05/27 01:00:20;;;;;;;2.80;2.00;;;13.80;73.50;;;12.83;70.65;98385.50;5088591;28;20473;-73
2022/05/27 01:02:48;;;;;;;3.10;2.70;;;13.80;73.60;;;12.78;71.10;98382.59;5096528;28;20546;-74
2022/05/27 01:05:19;;;;;;;3.67;2.77;;;13.80;73.80;;;12.81;71.05;98382.16;5079221;28;20560;-75
2022/05/27 01:07:47;;;;;;;5.00;2.30;;;13.80;73.90;;;12.80;71.04;98381.34;5087116;28;20540;-75
2022/05/27 01:10:19;;;;;;;6.50;2.40;;;13.80;73.90;;;12.78;70.94;98371.75;5087848;28;20477;-75
2022/05/27 01:13:12;;;;;;;3.67;2.47;;;13.80;74.00;;;12.63;71.61;98364.78;5088375;28;20545;-74
2022/05/27 01:15:55;;;;;;;3.40;2.33;;;13.70;74.00;;;12.29;71.48;98320.84;5085353;28;20454;-76
2022/05/27 01:21:27;;;;;;;3.80;2.63;;;13.50;74.80;;;12.42;71.47;98319.91;5089732;28;21013;-74
2022/05/27 01:24:18;;;;;;;5.87;2.80;;;13.70;74.60;;;12.64;71.78;98365.63;5075761;28;20965;-76
2022/05/27 01:27:09;;;;;;;2.40;2.10;;;13.60;74.60;;;12.72;71.16;98363.47;5088055;28;20445;-74
2022/05/27 01:30:22;;;;;;;2.70;2.30;;;13.70;75.00;;;12.78;71.21;98352.78;5099446;28;20531;-73
2022/05/27 01:33:06;;;;;;;3.10;2.60;;;13.70;74.60;;;12.69;71.40;98368.50;5082755;28;20512;-74
2022/05/27 01:35:44;;;;;;;3.20;2.50;;;13.70;74.60;;;12.67;71.35;98351.63;5102929;28;20825;-74
2022/05/27 01:38:19;;;;;;;4.60;2.77;;;13.60;74.70;;;12.67;71.52;98360.59;5071942;28;20890;-73
2022/05/27 01:41:00;;;;;;;3.20;2.50;;;13.70;74.80;;;12.64;71.56;98339.34;5103055;28;20471;-75
2022/05/27 01:43:37;;;;;;;3.33;3.03;;;13.70;74.80;;;12.68;71.67;98351.41;5102718;28;20553;-75
2022/05/27 01:46:13;;;;;;;3.93;2.50;;;13.70;74.70;;;12.72;71.29;98351.78;5087071;28;20527;-75
2022/05/27 01:48:48;;;;;;;6.23;2.50;;;13.70;74.60;;;12.58;71.64;98341.06;5094600;28;20460;-73
2022/05/27 01:51:25;;;;;;;4.80;2.37;;;13.70;74.60;;;12.64;71.48;98350.19;5079310;28;20877;-73
2022/05/27 01:53:58;;;;;;;6.63;2.50;;;13.70;75.00;;;12.62;71.72;98346.88;5072730;28;20539;-73
2022/05/27 01:56:32;;;;;;;2.93;2.50;;;13.70;74.90;;;12.56;71.89;98334.22;5103450;27;20514;-76
2022/05/27 01:59:05;;;;;;;3.60;2.10;;;13.60;75.00;;;12.53;72.01;98337.38;5104541;28;20491;-74
2022/05/27 02:01:38;;;;;;;2.67;2.47;;;13.60;75.20;;;12.52;72.44;98339.22;5102263;28;20471;-77
2022/05/27 02:04:13;;;;;;;4.93;2.30;;;13.50;75.50;;;12.42;72.54;98333.47;5091101;28;20480;-74
2022/05/27 02:06:46;;;;;;;4.20;2.67;;;13.50;75.70;;;12.49;72.47;98342.38;5107639;28;20451;-73
2022/05/27 02:09:20;;;;;;;5.90;2.67;;;13.50;75.90;;;12.50;72.44;98332.34;5100668;28;20474;-75
2022/05/27 02:11:53;;;;;;;3.27;2.97;;;13.50;75.70;;;12.43;72.60;98333.25;5105835;28;20451;-73
2022/05/27 02:14:26;;;;;;;5.77;3.10;;;13.40;75.80;;;12.46;72.47;98337.41;5107720;28;21001;-74
2022/05/27 02:17:04;;;;;;;3.27;2.20;;;13.40;75.90;;;12.45;72.72;98335.75;5101522;28;20458;-74
2022/05/27 02:19:36;;;;;;;4.60;2.63;;;13.40;76.10;;;12.33;73.17;98339.16;5096038;28;20551;-74
2022/05/27 02:22:11;;;;;;;4.17;2.47;;;13.40;76.30;;;12.32;73.26;98336.66;5090312;28;20558;-74
2022/05/27 02:24:43;;;;;;;3.30;2.80;;;13.30;76.50;;;12.33;73.03;98338.31;5072478;28;20450;-76
2022/05/27 02:27:18;;;;;;;3.20;2.50;;;13.30;76.50;;;12.29;73.41;98334.41;5066485;28;20577;-73
2022/05/27 02:29:51;;;;;;;3.00;2.80;;;13.30;76.70;;;12.25;73.98;98335.88;5088093;28;20485;-73
2022/05/27 02:32:25;;;;;;;7.70;3.40;;;13.30;76.90;;;12.26;73.48;98326.72;5084056;28;20942;-75
2022/05/27 02:35:07;;;;;;;3.67;2.63;;;13.30;77.10;;;12.22;73.56;98325.50;5100290;28;20479;-73
2022/05/27 02:37:38;;;;;;;2.40;2.20;;;13.30;77.10;;;12.24;73.75;98328.81;5091669;28;20461;-74
2022/05/27 02:40:11;;;;;;;4.30;2.63;;;13.20;77.30;;;12.20;74.19;98320.28;5089563;28;20452;-77
2022/05/27 02:42:52;;;;;;;3.10;2.73;;;13.20;77.50;;;12.15;74.36;98323.66;5092126;28;20518;-72
2022/05/27 02:45:31;;;;;;;2.70;2.50;;;13.20;77.50;;;12.10;74.45;98328.06;5087630;28;20467;-75
2022/05/27 02:48:12;;;;;;;3.63;3.33;;;13.10;78.10;;;12.22;74.29;98328.22;5091152;28;20455;-73
2022/05/27 02:50:48;;;;;;;4.70;2.43;;;13.20;78.10;;;12.12;74.80;98332.22;5074716;28;20818;-75
2022/05/27 02:53:24;;;;;;;3.63;3.13;;;13.10;78.30;;;12.08;74.68;98330.16;5079380;28;20458;-74
2022/05/27 02:56:11;;;;;;;2.50;2.30;;;13.10;78.70;;;12.07;74.43;98323.91;5107484;28;20448;-74
2022/05/27 02:58:38;;;;;;;3.03;2.67;;;13.00;78.60;;;12.02;75.32;98321.00;5099548;28;20456;-73
2022/05/27 03:01:07;;;;;;;2.77;2.40;;;13.00;78.90;;;12.04;75.18;98324.34;5085005;28;20479;-73
2022/05/27 03:03:36;;;;;;;3.40;2.50;;;13.10;78.90;;;12.03;74.70;98303.72;5112552;28;20444;-73
2022/05/27 03:06:21;;;;;;;3.37;2.60;;;13.10;78.80;;;12.08;74.83;98306.63;5097792;28;20458;-73
2022/05/27 03:09:03;;;;;;;4.73;3.30;;;13.10;78.70;;;12.14;74.57;98303.03;5086900;28;20462;-74
2022/05/27 03:11:47;;;;;;;3.20;2.80;;;13.10;78.80;;;12.08;75.15;98312.03;5087210;28;20445;-74
2022/05/27 03:14:46;;;;;;;5.93;2.80;;;13.10;79.00;;;12.14;74.98;98319.28;5089333;28;20470;-75
2022/05/27 03:17:30;;;;;;;3.50;3.20;;;13.10;79.10;;;12.15;74.64;98326.34;5097588;28;20462;-75
2022/05/27 03:20:18;;;;;;;5.10;2.70;;;13.10;79.10;;;12.17;74.39;98316.13;5088779;27;20459;-73
2022/05/27 03:23:04;;;;;;;4.70;2.93;;;13.20;79.10;;;12.14;74.74;98310.34;5070823;28;20475;-73
2022/05/27 03:25:42;;;;;;;3.83;2.80;;;13.20;79.10;;;12.23;74.64;98316.31;5076147;28;20579;-74
2022/05/27 03:28:17;;;;;;;3.70;2.70;;;13.20;79.10;;;12.12;74.79;98310.53;5082233;28;20455;-73
2022/05/27 03:30:56;;;;;;;3.83;2.80;;;13.20;79.10;;;12.17;74.90;98318.03;5095835;28;21037;-76
2022/05/27 03:33:32;;;;;;;3.00;2.70;;;13.20;79.20;;;12.19;74.66;98321.34;5089791;28;21031;-74
2022/05/27 03:36:10;;;;;;;6.10;3.10;;;13.20;79.10;;;12.24;74.88;98315.28;5104765;28;20461;-73
2022/05/27 03:38:45;;;;;;;5.70;2.97;;;13.20;79.10;;;12.21;75.16;98319.25;5089897;28;20463;-74
2022/05/27 03:41:27;;;;;;;3.03;2.80;;;13.20;79.30;;;12.19;74.84;98316.72;5089432;28;20478;-76
2022/05/27 03:43:55;;;;;;;4.20;2.97;;;13.20;79.50;;;12.29;74.85;98326.28;5090750;28;20467;-77
2022/05/27 03:46:31;;;;;;;3.97;3.13;;;13.30;79.20;;;12.25;74.53;98315.03;5098983;28;20498;-73
2022/05/27 03:48:59;;;;;;;3.20;2.50;;;13.30;79.10;;;12.22;74.94;98309.25;5104455;27;20491;-73
2022/05/27 03:51:30;;;;;;;3.87;2.97;;;13.30;79.20;;;12.28;74.65;98320.03;5106608;28;21275;-73
2022/05/27 03:54:06;;;;;;;3.17;2.83;;;13.30;79.30;;;12.27;74.52;98312.94;5088462;28;20912;-75
2022/05/27 03:56:37;;;;;;;6.23;3.40;;;13.30;79.20;;;12.27;74.92;98317.53;5089624;28;20510;-74
2022/05/27 03:59:06;;;;;;;3.50;2.60;;;13.30;79.20;;;12.37;74.26;98308.91;5092561;28;20464;-74
2022/05/27 04:01:35;;;;;;;3.50;3.20;;;13.40;79.30;;;12.35;74.69;98303.69;5103545;28;20476;-73
2022/05/27 04:04:09;;;;;;;7.10;3.33;;;13.40;79.20;;;12.50;73.98;98305.25;5090618;28;20544;-73
2022/05/27 04:06:38;;;;;;;4.27;3.13;;;13.50;79.10;;;12.60;73.49;98305.59;5101035;28;20465;-74
2022/05/27 04:09:06;;;;;;;4.13;3.73;;;13.60;78.80;;;13.13;71.70;98298.03;5085789;28;20558;-73
2022/05/27 04:11:33;;;;;;;6.13;3.70;;;14.00;78.10;;;13.90;68.96;98306.72;5078734;28;20514;-73
2022/05/27 04:14:01;;;;;;;7.00;3.40;;;14.90;76.20;;;14.31;67.57;98294.19;5088039;28;20465;-74
2022/05/27 04:16:28;;;;;;;2.97;2.60;;;15.50;74.30;;;14.72;65.16;98292.53;5082260;28;20450;-74
2022/05/27 04:18:56;;;;;;;3.83;3.00;;;16.00;72.30;;;15.00;64.23;98292.88;5100694;28;20876;-74
2022/05/27 04:21:23;;;;;;;3.50;2.80;;;16.50;70.70;;;15.70;62.37;98284.81;5105455;28;20952;-74
2022/05/27 04:23:52;;;;;;;3.20;2.67;;;16.90;69.80;;;15.13;62.81;98245.53;5089953;28;20460;-75
2022/05/27 04:26:20;;;;;;;3.57;2.67;;;17.00;68.40;;;15.55;62.37;98291.59;5079589;28;20546;-74
2022/05/27 04:28:47;;;;;;;5.93;3.20;;;17.20;68.20;;;16.01;61.01;98288.16;5083043;28;20526;-75
2022/05/27 04:31:15;;;;;;;3.00;2.70;;;17.50;67.30;;;16.73;58.90;98290.41;5106823;28;20455;-73
2022/05/27 04:33:44;;;;;;;4.40;2.50;;;17.80;66.60;;;17.55;56.29;98291.59;5109780;28;20988;-73
2022/05/27 04:36:14;;;;;;;6.10;2.87;;;18.50;65.00;;;17.24;56.60;98296.66;5109741;28;20446;-74
2022/05/27 04:38:43;;;;;;;3.67;2.77;;;18.60;63.80;;;17.73;54.77;98266.91;5100812;28;20520;-75
2022/05/27 04:41:11;;;;;;;4.23;2.90;;;19.10;62.90;;;17.10;56.81;98295.38;5087892;28;20447;-74
2022/05/27 04:43:39;;;;;;;3.53;2.97;;;18.80;62.60;;;16.13;59.89;98291.63;5088495;28;21009;-75
2022/05/27 04:46:06;;;;;;;5.23;3.70;;;17.90;63.60;;;15.97;60.77;98292.41;5082620;28;20602;-77
2022/05/27 04:48:33;;;;;;;4.23;2.93;;;17.40;65.00;;;16.61;59.61;98290.50;5112547;28;20455;-78
2022/05/27 04:51:00;;;;;;;4.10;3.13;;;17.60;65.40;;;16.74;58.38;98292.06;5119147;27;20450;-75
2022/05/27 04:53:27;;;;;;;4.77;2.70;;;18.00;64.10;;;15.95;61.18;98308.19;5110221;28;20517;-74
2022/05/27 04:55:55;;;;;;;6.83;2.80;;;17.50;64.70;;;15.53;62.46;98295.63;5106158;28;20454;-74
2022/05/27 04:58:24;;;;;;;3.20;2.60;;;16.90;65.80;;;14.83;64.75;98298.22;5096937;28;20458;-76
2022/05/27 05:00:51;;;;;;;3.20;2.90;;;16.20;67.20;;;15.20;64.75;98308.00;5100561;28;20454;-74
2022/05/27 05:03:18;;;;;;;3.10;2.70;;;16.50;68.40;;;15.35;63.10;98312.94;5110298;28;20466;-75
2022/05/27 05:05:45;;;;;;;2.77;2.30;;;16.50;67.90;;;15.09;64.71;98317.81;5093978;28;20506;-73
2022/05/27 05:08:24;;;;;;;3.40;2.90;;;16.20;68.60;;;16.24;61.67;98316.34;5102357;28;20438;-74
2022/05/27 05:10:51;;;;;;;3.20;2.80;;;17.10;67.90;;;18.07;56.88;98303.13;5109030;28;20504;-74
2022/05/27 05:13:18;;;;;;;5.33;3.30;;;18.60;66.00;;;18.71;54.30;98299.84;5111856;27;20934;-74
2022/05/27 05:15:47;;;;;;;4.00;3.37;;;19.60;63.30;;;19.07;52.89;98308.34;5083030;28;20520;-74
2022/05/27 05:18:14;;;;;;;5.10;2.47;;;20.40;61.50;;;18.41;53.99;98302.88;5086252;28;20579;-73
2022/05/27 05:20:41;;;;;;;4.10;2.90;;;20.00;60.70;;;17.65;57.37;98318.19;5088190;28;20712;-75
2022/05/27 05:23:08;;;;;;;5.47;3.07;;;19.00;62.60;;;17.10;57.54;98311.75;5086838;28;20528;-74
2022/05/27 05:25:36;;;;;;;4.87;3.00;;;18.50;62.80;;;16.59;59.63;98318.00;5086797;28;20551;-75
2022/05/27 05:28:03;;;;;;;2.93;2.63;;;17.80;64.20;;;15.58;62.98;98315.63;5098164;27;20841;-74
2022/05/27 05:30:30;;;;;;;3.60;2.93;;;17.20;65.80;;;15.91;62.87;98323.38;5114788;27;20557;-74
2022/05/27 05:32:58;;;;;;;5.57;2.97;;;17.00;67.10;;;15.53;64.15;98317.41;5086159;27;20793;-75
2022/05/27 05:35:25;;;;;;;3.27;2.93;;;16.60;67.90;;;15.36;64.80;98317.31;5066128;28;20448;-75
2022/05/27 05:37:52;;;;;;;3.30;3.00;;;16.50;68.70;;;15.06;65.58;98310.13;5070592;28;20539;-74
2022/05/27 05:40:20;;;;;;;4.40;3.13;;;16.20;69.00;;;15.14;66.07;98320.66;5086766;28;20550;-73
2022/05/27 05:42:47;;;;;;;6.27;3.40;;;16.20;70.40;;;15.06;65.63;98288.38;5082690;28;20506;-74
2022/05/27 05:45:17;;;;;;;3.13;2.67;;;16.10;70.50;;;15.14;66.33;98331.56;5106863;28;20533;-75
2022/05/27 05:47:45;;;;;;;3.73;2.90;;;16.20;70.60;;;15.30;66.36;98336.28;5118065;27;20468;-75
2022/05/27 05:50:16;;;;;;;3.83;3.40;;;16.20;71.30;;;15.06;66.19;98324.56;5085603;28;20493;-75
2022/05/27 05:52:43;;;;;;;5.20;3.30;;;16.00;70.90;;;14.68;67.58;98318.50;5104656;28;20812;-75
2022/05/27 05:55:13;;;;;;;4.40;3.20;;;15.80;71.90;;;14.73;67.97;98332.25;5082573;28;20524;-78
2022/05/27 05:57:43;;;;;;;5.50;3.53;;;15.80;72.30;;;14.75;67.59;98328.47;5093818;28;20450;-75
2022/05/27 06:00:15;;;;;;;3.40;3.10;;;15.70;72.40;;;14.78;67.94;98323.38;5088272;28;20549;-71
2022/05/27 06:02:42;;;;;;;6.93;3.50;;;15.70;72.70;;;14.68;68.69;98323.94;5103911;28;20488;-72
2022/05/27 06:05:10;;;;;;;3.83;3.43;;;15.80;73.20;;;14.99;67.66;98319.25;5088166;28;20539;-73
2022/05/27 06:07:39;;;;;;;8.10;4.10;;;15.80;73.20;;;15.10;67.30;98319.50;5085888;28;20463;-73
2022/05/27 06:10:08;;;;;;;4.00;3.60;;;16.00;73.00;;;15.01;67.04;98311.69;5088445;28;20622;-72
2022/05/27 06:12:36;;;;;;;4.93;3.90;;;16.00;72.80;;;15.43;66.50;98318.03;5084806;28;20461;-72
2022/05/27 06:15:07;;;;;;;3.70;3.40;;;16.20;72.70;;;15.53;66.25;98318.22;5108648;28;20466;-72
2022/05/27 06:17:34;;;;;;;7.30;4.10;;;16.40;72.40;;;15.62;65.86;98306.97;5084394;28;20521;-72
2022/05/27 06:20:02;;;;;;;9.80;5.60;;;16.50;72.00;;;15.58;65.77;98325.69;5082677;28;20462;-71
2022/05/27 06:22:29;;;;;;;4.50;3.73;;;16.50;71.80;;;15.35;66.61;98326.56;5105721;28;20557;-71
2022/05/27 06:24:58;;;;;;;3.83;3.30;;;16.40;72.10;;;15.58;65.93;98318.34;5084963;28;20539;-72
2022/05/27 06:27:26;;;;;;;5.60;3.43;;;16.50;72.30;;;15.38;66.29;98326.91;5083756;28;20449;-72
2022/05/27 06:35:34;;;;;;;4.23;3.33;;;16.50;72.40;;;15.47;66.73;98330.09;5012718;28;20647;-72
2022/05/27 06:38:02;;;;;;;8.30;4.17;;;16.50;72.70;;;15.36;67.08;98322.75;5085366;28;20988;-71
2022/05/27 06:40:30;;;;;;;4.23;3.40;;;16.40;72.60;;;15.29;67.29;98295.66;5086257;28;20497;-71
2022/05/27 06:42:58;;;;;;;3.70;3.40;;;16.30;72.90;;;15.13;67.29;98317.09;5088352;28;21681;-73
2022/05/27 06:45:25;;;;;;;6.20;4.30;;;16.20;72.90;;;15.14;67.99;98324.19;5072892;28;20450;-71
2022/05/27 06:47:53;;;;;;;4.63;4.23;;;16.20;73.50;;;15.24;68.38;98322.78;5094844;28;20549;-71
2022/05/27 06:50:20;;;;;;;3.40;3.10;;;16.20;73.90;;;15.32;68.38;98327.88;5083030;28;20505;-71
2022/05/27 06:52:50;;;;;;;4.83;3.73;;;16.20;74.00;;;15.36;67.45;98312.72;5086728;28;20481;-71
2022/05/27 06:55:17;;;;;;;5.13;4.20;;;16.30;73.90;;;15.48;67.64;98331.75;5085773;28;20450;-72
2022/05/27 06:57:45;;;;;;;4.50;4.10;;;16.40;73.90;;;15.53;67.63;98328.31;5082742;28;20485;-71
2022/05/27 07:00:15;;;;;;;4.97;4.40;;;16.50;73.70;;;15.61;67.53;98329.81;5083338;28;20464;-72
2022/05/27 07:02:42;;;;;;;14.30;10.47;;;16.60;73.90;;;15.91;66.13;98329.63;5106765;28;20546;-71
2022/05/27 07:05:10;;;;;;;5.27;4.50;;;16.70;73.20;;;15.81;66.76;98308.44;5085040;28;20458;-72
2022/05/27 07:07:37;;;;;;;6.50;4.60;;;16.80;73.30;;;16.04;65.98;98325.81;5081347;28;20995;-72
2022/05/27 07:10:06;;;;;;;6.53;5.47;;;16.90;73.20;;;15.98;66.18;98318.59;5078685;28;20502;-72
2022/05/27 07:12:33;;;;;;;8.77;7.93;;;17.00;72.90;;;16.17;65.59;98315.69;5108574;28;20496;-72
2022/05/27 07:15:01;;;;;;;9.53;7.30;;;17.10;72.70;;;16.22;65.12;98311.13;5099239;28;20471;-72
2022/05/27 07:17:28;;;;;;;10.13;7.00;;;17.10;72.40;;;16.45;64.97;98316.69;5102855;28;20453;-72
2022/05/27 07:19:56;;;;;;;11.83;10.60;;;17.30;72.50;;;16.27;64.95;98313.13;5093971;28;20457;-72
2022/05/27 07:22:25;;;;;;;7.33;6.50;;;17.30;72.20;;;16.60;63.77;98313.41;5102634;28;20493;-72
2022/05/27 07:24:53;;;;;;;5.00;4.50;;;17.40;71.70;;;16.66;62.79;98315.97;5088254;28;20534;-74
2022/05/27 07:27:20;;;;;;;6.40;4.80;;;17.60;70.70;;;16.51;63.53;98311.06;5087897;28;20482;-72
2022/05/27 07:29:47;;;;;;;5.47;4.93;;;17.50;71.20;;;16.59;63.85;98312.56;5089289;28;21047;-72
2022/05/27 07:32:15;;;;;;;5.23;4.70;;;17.50;71.30;;;16.35;63.93;98315.47;5087748;28;20523;-72
2022/05/27 07:34:46;;;;;;;4.50;4.10;;;17.40;71.10;;;16.15;64.48;98324.09;5104871;28;20459;-72
2022/05/27 07:37:14;;;;;;;5.40;4.93;;;17.10;71.30;;;16.05;64.38;98324.72;5089589;28;20873;-72
2022/05/27 07:39:41;;;;;;;5.43;4.60;;;17.10;71.20;;;15.75;65.14;98323.03;5082775;28;20455;-72
2022/05/27 07:42:08;;;;;;;5.57;4.93;;;16.80;71.50;;;15.74;65.17;98318.66;5083496;28;20636;-71
2022/05/27 07:44:36;;;;;;;4.80;4.47;;;16.70;71.00;;;15.90;64.55;98321.72;5102459;28;20452;-72
2022/05/27 07:47:05;;;;;;;5.93;4.60;;;16.80;71.00;;;15.95;64.10;98313.63;5103169;28;20551;-72
2022/05/27 07:49:35;;;;;;;4.30;3.93;;;16.80;70.50;;;16.45;61.98;98300.31;5091420;28;20527;-72
2022/05/27 07:52:04;;;;;;;5.07;4.57;;;17.20;69.80;;;17.03;60.06;98291.97;5105307;28;20455;-72
2022/05/27 07:54:31;;;;;;;4.33;4.03;;;17.80;68.60;;;17.24;59.27;98307.59;5090164;28;20566;-72
2022/05/27 07:56:58;;;;;;;5.50;4.70;;;18.10;67.70;;;16.99;59.42;98292.47;5082324;28;20964;-72
2022/05/27 07:59:26;;;;;;;5.50;4.37;;;18.10;67.20;;;17.12;59.47;98293.22;5090298;28;20443;-73
2022/05/27 08:01:53;;;;;;;6.90;5.10;;;18.10;67.20;;;16.99;59.32;98300.66;5086059;28;20458;-73
2022/05/27 08:04:20;;;;;;;4.90;4.20;;;18.10;66.60;;;16.93;60.07;98290.75;5092497;28;20973;-73
2022/05/27 08:06:49;;;;;;;6.50;4.60;;;18.00;67.00;;;17.24;59.40;98307.59;5087030;28;20955;-72
2022/05/27 08:09:16;;;;;;;6.03;4.67;;;18.10;67.10;;;17.25;58.95;98301.03;5097104;28;20549;-71
2022/05/27 08:11:44;;;;;;;4.97;4.30;;;18.20;66.60;;;16.66;60.49;98299.59;5085404;28;20462;-72
2022/05/27 08:14:11;;;;;;;4.60;4.10;;;17.80;66.80;;;16.53;61.06;98294.47;5108113;28;20937;-73
2022/05/27 08:16:41;;;;;;;4.90;4.47;;;17.60;67.30;;;16.80;60.29;98297.34;5102808;28;20500;-72
2022/05/27 08:19:09;;;;;;;5.37;4.87;;;17.60;67.30;;;16.38;61.11;98295.88;5082371;28;20451;-71
2022/05/27 08:21:36;;;;;;;4.60;4.20;;;17.40;67.20;;;16.50;60.97;98295.78;5105019;28;20919;-72
2022/05/27 08:24:07;;;;;;;5.30;4.03;;;17.40;67.50;;;16.48;60.54;98294.41;5089141;28;20494;-73
2022/05/27 08:26:34;;;;;;;7.53;4.90;;;17.50;66.90;;;16.67;60.00;98297.69;5083317;28;20467;-72
2022/05/27 08:29:03;;;;;;;4.67;4.17;;;17.50;66.90;;;16.33;61.39;98298.53;5117004;27;20459;-71
2022/05/27 08:31:30;;;;;;;4.77;4.37;;;17.40;67.30;;;16.42;60.88;98297.03;5109026;28;20490;-71
2022/05/27 08:39:28;;;;;;;5.10;3.80;;;17.80;66.90;;;17.71;57.74;98294.50;5088946;28;20455;-72
2022/05/27 08:42:09;;;;;;;4.47;3.67;;;18.30;66.10;;;18.10;56.77;98285.38;5088160;28;20541;-71
2022/05/27 08:44:48;;;;;;;4.50;4.10;;;18.80;65.70;;;18.01;56.35;98295.09;5101922;28;20470;-72
2022/05/27 08:47:24;;;;;;;3.77;3.47;;;19.00;64.40;;;17.95;56.62;98283.28;5122266;27;20984;-71
2022/05/27 08:50:02;;;;;;;5.03;4.40;;;18.90;64.40;;;17.66;57.49;98276.13;5095975;28;20478;-74
2022/05/27 08:52:35;;;;;;;5.60;4.70;;;18.70;64.60;;;17.69;57.60;98283.00;5108881;28;20581;-72
2022/05/27 08:59:26;;;;;;;3.93;3.63;;;18.70;65.20;;;17.92;57.00;98283.78;5108187;28;20462;-73
2022/05/27 09:00:47;;;;;;;5.30;4.80;;;18.90;64.60;;;17.03;59.88;98278.31;5047655;28;20461;-72
2022/05/27 09:03:16;;;;;;;5.40;5.00;;;18.20;65.30;;;16.84;60.79;98281.31;5090578;28;20547;-71
2022/05/27 09:05:51;;;;;;;6.17;5.10;;;18.00;66.00;;;17.01;60.11;98280.50;5078783;28;20455;-71
2022/05/27 09:08:23;;;;;;;5.50;5.00;;;18.00;66.50;;;17.03;60.61;98287.34;5088754;28;20519;-71
2022/05/27 09:10:59;;;;;;;6.07;4.47;;;17.90;66.70;;;17.14;60.20;98285.59;5086562;28;20973;-72
2022/05/27 09:13:35;;;;;;;5.00;4.60;;;17.90;66.80;;;17.06;60.06;98278.66;5080906;28;20542;-72
2022/05/27 09:16:12;;;;;;;4.57;4.17;;;18.00;66.50;;;17.48;58.98;98284.66;5085130;28;20503;-72
2022/05/27 09:18:49;;;;;;;7.30;4.00;;;18.20;66.50;;;17.84;57.85;98283.19;5088662;28;20498;-72
2022/05/27 09:21:29;;;;;;;4.50;4.10;;;18.60;65.70;;;17.46;58.20;98287.63;5088500;28;20468;-71
2022/05/27 09:24:34;;;;;;;4.77;4.37;;;18.50;65.00;;;17.34;58.79;98276.00;5083688;28;20891;-71
2022/05/27 09:27:09;;;;;;;5.33;3.87;;;18.30;65.60;;;17.24;59.32;98273.97;5077392;28;20960;-71
2022/05/27 09:29:56;;;;;;;7.57;5.03;;;18.20;66.00;;;16.96;60.43;98271.13;5100703;28;20950;-71
2022/05/27 09:32:32;;;;;;;5.70;5.20;;;18.00;66.30;;;17.09;60.36;98278.16;5084103;28;20455;-70
2022/05/27 09:35:05;;;;;;;5.10;4.70;;;18.00;66.50;;;16.91;61.16;98276.53;5098297;28;20449;-72
2022/05/27 09:37:39;;;;;;;5.90;5.40;;;18.00;66.90;;;17.19;60.08;98272.00;5108111;28;20530;-73
2022/05/27 09:40:15;;;;;;;5.37;4.80;;;18.00;66.80;;;17.23;60.05;98267.72;5082185;28;20459;-71
2022/05/27 09:42:58;;;;;;;6.00;5.50;;;18.10;66.60;;;17.19;59.96;98272.00;5102933;28;20737;-72
2022/05/27 09:45:25;;;;;;;8.10;5.10;;;18.20;66.40;;;16.87;60.44;98272.63;5107084;28;20460;-71
2022/05/27 09:47:58;;;;;;;5.93;5.37;;;17.90;66.10;;;16.83;60.30;98268.75;5101161;28;20546;-71
2022/05/27 09:50:29;;;;;;;6.30;5.77;;;17.80;66.10;;;16.76;61.11;98268.91;5087859;28;20439;-72
2022/05/27 09:53:00;;;;;;;5.97;5.47;;;17.80;66.90;;;16.73;60.72;98269.44;5086763;28;20844;-72
2022/05/27 09:55:49;;;;;;;6.00;5.50;;;17.70;66.40;;;16.91;60.57;98268.34;5085099;28;20458;-72
2022/05/27 09:58:25;;;;;;;6.70;6.10;;;17.80;66.90;;;16.73;61.33;98263.13;5076405;28;20458;-72
2022/05/27 10:00:53;;;;;;;9.23;6.63;;;17.80;66.70;;;16.48;61.06;98218.03;5083565;28;20478;-72
2022/05/27 10:03:28;;;;;;;7.50;6.73;;;17.70;67.00;;;16.98;60.76;98260.78;5095409;27;20508;-73
2022/05/27 10:06:00;;;;;;;7.10;6.43;;;17.90;66.90;;;17.15;60.14;98261.88;5066453;28;20474;-72
2022/05/27 10:08:32;;;;;;;7.70;7.00;;;18.00;66.80;;;17.23;60.11;98264.97;5088049;28;20492;-72
2022/05/27 10:11:22;;;;;;;6.93;6.23;;;18.10;66.60;;;17.54;59.28;98270.81;5086124;28;20463;-72
2022/05/27 10:14:14;;;;;;;7.60;6.93;;;18.30;66.40;;;17.25;59.75;98276.47;5103298;28;20442;-72
2022/05/27 10:16:59;;;;;;;6.83;6.17;;;18.20;66.20;;;17.45;59.61;98268.78;5084714;28;20448;-72
2022/05/27 10:19:28;;;;;;;5.10;4.60;;;18.30;66.50;;;17.64;58.77;98272.84;5102795;28;20834;-72
2022/05/27 10:21:58;;;;;;;5.83;4.77;;;18.40;66.10;;;17.87;57.74;98265.44;5095060;28;20915;-72
2022/05/27 10:24:30;;;;;;;5.00;4.63;;;18.70;65.60;;;17.91;57.75;98266.59;5082513;28;20463;-72
2022/05/27 10:27:20;;;;;;;5.27;4.77;;;18.80;65.50;;;17.53;58.53;98266.44;5099544;28;20489;-71
2022/05/27 10:29:53;;;;;;;6.00;4.80;;;18.50;65.10;;;17.40;59.09;98269.56;5081320;28;20459;-71
2022/05/27 10:32:34;;;;;;;6.23;5.73;;;18.40;65.40;;;17.42;58.91;98261.94;5084691;28;20447;-72
2022/05/27 10:35:02;;;;;;;8.17;6.47;;;18.30;65.30;;;17.56;58.89;98260.47;5086670;28;20606;-72
2022/05/27 10:37:54;;;;;;;5.70;5.20;;;18.50;65.60;;;17.54;59.26;98268.09;5086348;28;20491;-71
2022/05/27 10:40:37;;;;;;;8.50;6.37;;;18.50;65.60;;;17.32;59.36;98264.53;5114807;27;20489;-71
2022/05/27 10:43:29;;;;;;;7.03;6.10;;;18.30;65.50;;;17.93;58.06;98269.88;5099878;28;20916;-71
2022/05/27 10:46:05;;;;;;;6.77;6.27;;;18.60;65.70;;;17.72;58.04;98257.91;5105311;28;20941;-71
2022/05/27 10:49:00;;;;;;;8.43;6.17;;;18.70;65.10;;;17.31;59.60;98260.97;5090924;28;20901;-72
2022/05/27 10:51:41;;;;;;;7.27;5.70;;;18.30;65.50;;;17.66;59.40;98265.22;5112668;28;20486;-71
2022/05/27 10:54:34;;;;;;;7.43;6.57;;;18.50;66.10;;;17.26;59.87;98266.34;5065994;28;21225;-71
2022/05/27 11:03:26;;;;;;;7.13;5.07;;;17.60;66.80;;;16.49;61.85;98257.88;5091183;28;20478;-72
2022/05/27 11:06:21;;;;;;;6.33;5.67;;;17.50;66.70;;;16.85;61.33;98261.97;5085704;28;20983;-72